EDHL/LBC METAR and TAF weather

Enter ICAO airport designator
Station Type Date Time Source
EDHL METAR 2018/06/24 18:50 UTC NOAA

EDHL 241850Z 25005KT 220V280 9999 FEW030 15/12 Q1018


Station Type Date Time Source
EDHL Decoded METAR 2018/06/24 18:50 UTC NOAA

Luebeck-Blankensee, Germany (EDHL) 53-49N 010-42E 15M
Jun 24, 2018 - 02:50 PM EDT / 2018.06.24 1850 UTC
Wind: from the WSW (250 degrees) at 6 MPH (5 KT) (direction variable):0
Visibility: greater than 7 mile(s):0
Sky conditions: mostly clear
Temperature: 59 F (15 C)
Dew Point: 53 F (12 C)
Relative Humidity: 82%
Pressure (altimeter): 30.06 in. Hg (1018 hPa)
ob: EDHL 241850Z 25005KT 220V280 9999 FEW030 15/12 Q1018
cycle: 19

Station Type Date Time Source
EDHL TAF 2010/02/22 14:20 UTC NOAA

METAR EDHL 221420Z 15004KT 110V180 9999 FEW039 SCT120 05/02 Q0990
RMK X


Example: see airport list